createdAt,value
2024-03-29T00:00:25.618Z,64
2024-03-29T00:10:25.810Z,64
2024-03-29T00:20:26.012Z,64
2024-03-29T00:30:26.218Z,64
2024-03-29T00:40:26.426Z,64
2024-03-29T00:50:26.625Z,64
2024-03-29T01:00:26.831Z,64
2024-03-29T01:20:27.232Z,64
2024-03-29T01:30:27.441Z,64
2024-03-29T01:40:27.634Z,64
2024-03-29T01:50:27.883Z,63
2024-03-29T02:00:28.052Z,64
2024-03-29T02:10:28.294Z,64
2024-03-29T02:20:33.650Z,63
2024-03-29T02:30:28.657Z,63
2024-03-29T03:30:29.872Z,61
2024-03-29T03:40:30.106Z,61
2024-03-29T03:50:30.269Z,62
2024-03-29T04:00:30.488Z,62
2024-03-29T04:10:30.794Z,62
2024-03-29T04:20:30.903Z,63
2024-03-29T04:30:31.179Z,64
2024-03-29T04:40:31.297Z,65
2024-03-29T05:00:31.699Z,68
2024-03-29T05:10:32.009Z,69
2024-03-29T05:40:32.529Z,72
2024-03-29T05:50:32.749Z,73
2024-03-29T06:00:32.987Z,73
2024-03-29T06:10:33.226Z,74
2024-03-29T06:20:33.378Z,74
2024-03-29T06:30:33.619Z,75
2024-03-29T06:40:33.739Z,75
2024-03-29T06:50:33.935Z,76
2024-03-29T07:00:34.201Z,76
2024-03-29T07:10:34.340Z,76
2024-03-29T07:20:34.551Z,76
2024-03-29T07:30:38.385Z,77
2024-03-29T07:40:35.007Z,77
2024-03-29T07:50:35.442Z,77
2024-03-29T08:00:35.395Z,77
2024-03-29T08:10:35.560Z,77
2024-03-29T08:20:36.570Z,77
2024-03-29T08:30:36.004Z,78
2024-03-29T08:40:36.166Z,78
2024-03-29T08:50:36.387Z,78
2024-03-29T09:00:36.580Z,78
2024-03-29T09:10:36.827Z,78
2024-03-29T09:20:36.984Z,79
2024-03-29T09:30:37.440Z,79
2024-03-29T09:40:37.453Z,80
2024-03-29T09:50:37.612Z,80
2024-03-29T10:00:37.793Z,80
2024-03-29T10:10:38.031Z,80
2024-03-29T10:20:38.205Z,80
2024-03-29T10:30:38.432Z,79
2024-03-29T10:40:38.610Z,79
2024-03-29T10:50:38.809Z,78
2024-03-29T11:00:39.025Z,79
2024-03-29T11:10:39.223Z,78
2024-03-29T11:20:39.399Z,78
2024-03-29T11:30:39.622Z,78
2024-03-29T11:40:39.810Z,77
2024-03-29T11:50:40.051Z,76
2024-03-29T12:10:40.418Z,74
2024-03-29T12:20:40.613Z,72
2024-03-29T12:30:40.815Z,70
2024-03-29T12:40:41.016Z,70
2024-03-29T12:50:41.216Z,71
2024-03-29T13:00:41.414Z,72
2024-03-29T13:10:41.636Z,72
2024-03-29T13:20:41.810Z,72
2024-03-29T13:30:42.079Z,71
2024-03-29T13:40:42.214Z,70
2024-03-29T13:50:42.429Z,67
2024-03-29T14:00:42.624Z,66
2024-03-29T14:10:42.844Z,64
2024-03-29T14:20:43.031Z,63
2024-03-29T14:30:43.358Z,65
2024-03-29T14:40:43.474Z,66
2024-03-29T14:50:43.617Z,67
2024-03-29T15:00:43.831Z,67
2024-03-29T15:10:44.057Z,68
2024-03-29T15:20:44.217Z,69
2024-03-29T15:30:44.427Z,69
2024-03-29T15:50:44.861Z,68
2024-03-29T16:00:45.032Z,68
2024-03-29T16:10:45.229Z,69
2024-03-29T16:20:45.431Z,69
2024-03-29T16:30:45.624Z,69
2024-03-29T16:40:45.887Z,69
2024-03-29T17:00:46.224Z,70
2024-03-29T17:10:47.138Z,70
2024-03-29T17:20:46.640Z,70
2024-03-29T17:30:46.834Z,70
2024-03-29T17:40:47.032Z,70
2024-03-29T17:50:47.257Z,70
2024-03-29T18:00:47.459Z,70
2024-03-29T18:10:47.629Z,70
2024-03-29T18:20:47.830Z,70
2024-03-29T18:30:48.067Z,70
2024-03-29T18:40:48.246Z,70
2024-03-29T18:50:48.439Z,70
2024-03-29T19:00:48.670Z,70
2024-03-29T19:10:48.836Z,70
2024-03-29T19:20:49.035Z,70
2024-03-29T19:30:49.244Z,70
2024-03-29T19:50:49.653Z,70
2024-03-29T20:00:49.860Z,71
2024-03-29T20:10:50.054Z,71
2024-03-29T20:20:50.259Z,71
2024-03-29T20:40:50.677Z,71
2024-03-29T21:10:51.285Z,71
2024-03-29T21:20:51.470Z,71
2024-03-29T21:30:51.675Z,71
2024-03-29T21:40:51.897Z,72
2024-03-29T21:50:52.065Z,72
2024-03-29T22:00:52.276Z,71
2024-03-29T22:10:52.496Z,72
2024-03-29T22:20:52.693Z,72
2024-03-29T22:30:52.883Z,72
2024-03-29T22:40:53.096Z,72
2024-03-29T22:50:53.330Z,73
2024-03-29T23:00:53.477Z,73
2024-03-29T23:10:53.691Z,74
2024-03-29T23:20:53.892Z,75
2024-03-29T23:30:54.094Z,75
2024-03-29T23:40:54.289Z,76
2024-03-29T23:50:54.488Z,76
